sensor_id;sensor_type;location;lat;lon;timestamp;P1;durP1;ratioP1;P2;durP2;ratioP2
10517;SDS011;5307;42.548;22.968;2022-10-31T00:02:24;14.85;;;5.78;;
10517;SDS011;5307;42.548;22.968;2022-10-31T00:04:51;9.25;;;5.57;;
10517;SDS011;5307;42.548;22.968;2022-10-31T00:07:18;9.45;;;5.82;;
10517;SDS011;5307;42.548;22.968;2022-10-31T00:09:45;11.98;;;5.80;;
10517;SDS011;5307;42.548;22.968;2022-10-31T00:12:13;10.75;;;6.70;;
10517;SDS011;5307;42.548;22.968;2022-10-31T00:14:39;15.98;;;6.30;;
10517;SDS011;5307;42.548;22.968;2022-10-31T00:17:06;18.10;;;7.78;;
10517;SDS011;5307;42.548;22.968;2022-10-31T00:19:33;13.43;;;6.97;;
10517;SDS011;5307;42.548;22.968;2022-10-31T00:22:00;12.15;;;6.75;;
10517;SDS011;5307;42.548;22.968;2022-10-31T00:24:27;19.55;;;6.85;;
10517;SDS011;5307;42.548;22.968;2022-10-31T00:26:53;15.20;;;7.38;;
10517;SDS011;5307;42.548;22.968;2022-10-31T00:29:21;12.32;;;6.88;;
10517;SDS011;5307;42.548;22.968;2022-10-31T00:31:48;11.45;;;6.43;;
10517;SDS011;5307;42.548;22.968;2022-10-31T00:34:15;14.68;;;7.22;;
10517;SDS011;5307;42.548;22.968;2022-10-31T00:36:42;17.73;;;7.68;;
10517;SDS011;5307;42.548;22.968;2022-10-31T00:39:08;18.70;;;7.13;;
10517;SDS011;5307;42.548;22.968;2022-10-31T00:41:35;10.45;;;6.90;;
10517;SDS011;5307;42.548;22.968;2022-10-31T00:44:02;17.02;;;7.00;;
10517;SDS011;5307;42.548;22.968;2022-10-31T00:46:30;15.43;;;6.80;;
10517;SDS011;5307;42.548;22.968;2022-10-31T00:48:57;18.15;;;7.32;;
10517;SDS011;5307;42.548;22.968;2022-10-31T00:51:24;14.43;;;8.23;;
10517;SDS011;5307;42.548;22.968;2022-10-31T00:53:51;13.43;;;6.60;;
10517;SDS011;5307;42.548;22.968;2022-10-31T00:56:17;14.40;;;6.90;;
10517;SDS011;5307;42.548;22.968;2022-10-31T00:58:44;15.65;;;7.72;;
10517;SDS011;5307;42.548;22.968;2022-10-31T01:01:11;15.43;;;7.00;;
10517;SDS011;5307;42.548;22.968;2022-10-31T01:03:39;16.00;;;6.40;;
10517;SDS011;5307;42.548;22.968;2022-10-31T01:06:07;11.13;;;6.75;;
10517;SDS011;5307;42.548;22.968;2022-10-31T01:08:36;12.40;;;6.30;;
10517;SDS011;5307;42.548;22.968;2022-10-31T01:11:04;13.38;;;6.20;;
10517;SDS011;5307;42.548;22.968;2022-10-31T01:13:33;15.85;;;6.30;;
10517;SDS011;5307;42.548;22.968;2022-10-31T01:16:01;14.25;;;7.15;;
10517;SDS011;5307;42.548;22.968;2022-10-31T01:18:29;12.82;;;7.10;;
10517;SDS011;5307;42.548;22.968;2022-10-31T01:20:58;12.40;;;6.90;;
10517;SDS011;5307;42.548;22.968;2022-10-31T01:23:26;16.48;;;6.70;;
10517;SDS011;5307;42.548;22.968;2022-10-31T01:28:37;9.90;;;5.57;;
10517;SDS011;5307;42.548;22.968;2022-10-31T01:31:07;12.05;;;6.15;;
10517;SDS011;5307;42.548;22.968;2022-10-31T01:33:35;10.52;;;5.75;;
10517;SDS011;5307;42.548;22.968;2022-10-31T01:36:12;14.38;;;5.85;;
10517;SDS011;5307;42.548;22.968;2022-10-31T01:38:43;15.98;;;6.00;;
10517;SDS011;5307;42.548;22.968;2022-10-31T01:41:11;8.98;;;5.80;;
10517;SDS011;5307;42.548;22.968;2022-10-31T01:43:43;8.98;;;5.15;;
10517;SDS011;5307;42.548;22.968;2022-10-31T01:46:14;11.68;;;5.95;;
10517;SDS011;5307;42.548;22.968;2022-10-31T01:48:43;7.60;;;4.88;;
10517;SDS011;5307;42.548;22.968;2022-10-31T01:51:12;14.05;;;6.07;;
10517;SDS011;5307;42.548;22.968;2022-10-31T01:53:40;9.25;;;5.20;;
10517;SDS011;5307;42.548;22.968;2022-10-31T01:56:10;7.88;;;5.03;;
10517;SDS011;5307;42.548;22.968;2022-10-31T01:58:38;13.30;;;5.40;;
10517;SDS011;5307;42.548;22.968;2022-10-31T02:01:06;12.60;;;5.57;;
10517;SDS011;5307;42.548;22.968;2022-10-31T02:03:33;10.48;;;5.05;;
10517;SDS011;5307;42.548;22.968;2022-10-31T02:06:00;5.90;;;4.40;;
10517;SDS011;5307;42.548;22.968;2022-10-31T02:08:34;10.88;;;5.53;;
10517;SDS011;5307;42.548;22.968;2022-10-31T02:11:03;7.70;;;5.13;;
10517;SDS011;5307;42.548;22.968;2022-10-31T02:20:10;8.02;;;4.78;;
10517;SDS011;5307;42.548;22.968;2022-10-31T02:22:46;9.70;;;4.47;;
10517;SDS011;5307;42.548;22.968;2022-10-31T02:25:35;14.30;;;5.38;;
10517;SDS011;5307;42.548;22.968;2022-10-31T02:28:25;10.45;;;4.60;;
10517;SDS011;5307;42.548;22.968;2022-10-31T02:31:08;9.65;;;5.10;;
10517;SDS011;5307;42.548;22.968;2022-10-31T02:33:48;10.15;;;4.63;;
10517;SDS011;5307;42.548;22.968;2022-10-31T02:36:20;14.13;;;4.75;;
10517;SDS011;5307;42.548;22.968;2022-10-31T02:38:52;6.70;;;4.07;;
10517;SDS011;5307;42.548;22.968;2022-10-31T02:41:30;9.90;;;4.90;;
10517;SDS011;5307;42.548;22.968;2022-10-31T02:44:04;5.75;;;4.38;;
10517;SDS011;5307;42.548;22.968;2022-10-31T02:46:37;12.23;;;4.30;;
10517;SDS011;5307;42.548;22.968;2022-10-31T02:49:14;12.27;;;5.22;;
10517;SDS011;5307;42.548;22.968;2022-10-31T02:51:59;7.65;;;4.72;;
10517;SDS011;5307;42.548;22.968;2022-10-31T02:54:26;7.28;;;4.72;;
10517;SDS011;5307;42.548;22.968;2022-10-31T02:57:02;15.95;;;7.47;;
10517;SDS011;5307;42.548;22.968;2022-10-31T02:59:31;19.73;;;8.23;;
10517;SDS011;5307;42.548;22.968;2022-10-31T03:02:08;22.27;;;9.00;;
10517;SDS011;5307;42.548;22.968;2022-10-31T03:04:53;18.55;;;9.00;;
10517;SDS011;5307;42.548;22.968;2022-10-31T03:07:31;17.23;;;8.70;;
10517;SDS011;5307;42.548;22.968;2022-10-31T03:10:09;16.70;;;8.45;;
10517;SDS011;5307;42.548;22.968;2022-10-31T03:12:45;17.80;;;9.02;;
10517;SDS011;5307;42.548;22.968;2022-10-31T03:15:21;16.00;;;8.57;;
10517;SDS011;5307;42.548;22.968;2022-10-31T03:17:54;19.05;;;8.77;;
10517;SDS011;5307;42.548;22.968;2022-10-31T03:20:28;14.60;;;7.90;;
10517;SDS011;5307;42.548;22.968;2022-10-31T03:23:00;13.77;;;8.02;;
10517;SDS011;5307;42.548;22.968;2022-10-31T03:25:28;12.18;;;6.82;;
10517;SDS011;5307;42.548;22.968;2022-10-31T03:27:57;12.63;;;6.00;;
10517;SDS011;5307;42.548;22.968;2022-10-31T03:30:28;11.35;;;6.53;;
10517;SDS011;5307;42.548;22.968;2022-10-31T03:32:59;15.63;;;5.95;;
10517;SDS011;5307;42.548;22.968;2022-10-31T03:35:32;21.17;;;9.05;;
10517;SDS011;5307;42.548;22.968;2022-10-31T03:38:01;18.50;;;8.45;;
10517;SDS011;5307;42.548;22.968;2022-10-31T03:40:29;24.67;;;11.68;;
10517;SDS011;5307;42.548;22.968;2022-10-31T03:43:00;22.15;;;8.18;;
10517;SDS011;5307;42.548;22.968;2022-10-31T03:45:30;17.45;;;7.45;;
10517;SDS011;5307;42.548;22.968;2022-10-31T03:48:00;19.60;;;8.82;;
10517;SDS011;5307;42.548;22.968;2022-10-31T03:50:28;15.65;;;8.43;;
10517;SDS011;5307;42.548;22.968;2022-10-31T03:53:01;20.73;;;9.50;;
10517;SDS011;5307;42.548;22.968;2022-10-31T03:55:36;19.52;;;9.10;;
10517;SDS011;5307;42.548;22.968;2022-10-31T03:58:08;21.42;;;8.55;;
10517;SDS011;5307;42.548;22.968;2022-10-31T04:00:38;18.95;;;8.25;;
10517;SDS011;5307;42.548;22.968;2022-10-31T04:03:11;26.55;;;9.27;;
10517;SDS011;5307;42.548;22.968;2022-10-31T04:05:42;22.95;;;9.13;;
10517;SDS011;5307;42.548;22.968;2022-10-31T04:08:13;23.25;;;9.00;;
10517;SDS011;5307;42.548;22.968;2022-10-31T04:10:43;21.77;;;10.52;;
10517;SDS011;5307;42.548;22.968;2022-10-31T04:13:14;30.55;;;10.65;;
10517;SDS011;5307;42.548;22.968;2022-10-31T04:15:45;28.92;;;10.77;;
10517;SDS011;5307;42.548;22.968;2022-10-31T04:18:16;31.73;;;11.20;;
10517;SDS011;5307;42.548;22.968;2022-10-31T04:20:43;28.13;;;10.05;;
10517;SDS011;5307;42.548;22.968;2022-10-31T04:23:13;27.98;;;11.18;;
10517;SDS011;5307;42.548;22.968;2022-10-31T04:25:44;22.52;;;10.15;;
10517;SDS011;5307;42.548;22.968;2022-10-31T04:28:11;28.90;;;10.20;;
10517;SDS011;5307;42.548;22.968;2022-10-31T04:30:38;19.75;;;9.93;;
10517;SDS011;5307;42.548;22.968;2022-10-31T04:33:05;21.65;;;8.95;;
10517;SDS011;5307;42.548;22.968;2022-10-31T04:35:33;23.65;;;10.20;;
10517;SDS011;5307;42.548;22.968;2022-10-31T04:38:00;24.08;;;9.07;;
10517;SDS011;5307;42.548;22.968;2022-10-31T04:40:26;28.95;;;9.00;;
10517;SDS011;5307;42.548;22.968;2022-10-31T04:42:53;29.75;;;12.27;;
10517;SDS011;5307;42.548;22.968;2022-10-31T04:45:20;32.20;;;13.75;;
10517;SDS011;5307;42.548;22.968;2022-10-31T04:47:47;32.60;;;11.77;;
10517;SDS011;5307;42.548;22.968;2022-10-31T04:50:14;25.27;;;9.63;;
10517;SDS011;5307;42.548;22.968;2022-10-31T04:52:44;24.55;;;11.70;;
10517;SDS011;5307;42.548;22.968;2022-10-31T04:55:12;23.50;;;11.30;;
10517;SDS011;5307;42.548;22.968;2022-10-31T04:57:42;33.65;;;10.63;;
10517;SDS011;5307;42.548;22.968;2022-10-31T05:00:11;28.92;;;10.13;;
10517;SDS011;5307;42.548;22.968;2022-10-31T05:02:43;35.13;;;9.40;;
10517;SDS011;5307;42.548;22.968;2022-10-31T05:05:10;31.52;;;10.23;;
10517;SDS011;5307;42.548;22.968;2022-10-31T05:07:38;24.45;;;10.40;;
10517;SDS011;5307;42.548;22.968;2022-10-31T05:10:08;23.77;;;10.15;;
10517;SDS011;5307;42.548;22.968;2022-10-31T05:12:36;23.33;;;10.27;;
10517;SDS011;5307;42.548;22.968;2022-10-31T05:15:03;26.90;;;10.02;;
10517;SDS011;5307;42.548;22.968;2022-10-31T05:17:31;25.42;;;9.38;;
10517;SDS011;5307;42.548;22.968;2022-10-31T05:19:58;21.63;;;9.20;;
10517;SDS011;5307;42.548;22.968;2022-10-31T05:22:25;24.00;;;9.68;;
10517;SDS011;5307;42.548;22.968;2022-10-31T05:24:51;26.17;;;8.95;;
10517;SDS011;5307;42.548;22.968;2022-10-31T05:27:20;25.20;;;10.52;;
10517;SDS011;5307;42.548;22.968;2022-10-31T05:29:47;28.52;;;11.13;;
10517;SDS011;5307;42.548;22.968;2022-10-31T05:32:13;27.63;;;11.77;;
10517;SDS011;5307;42.548;22.968;2022-10-31T05:34:40;30.20;;;11.15;;
10517;SDS011;5307;42.548;22.968;2022-10-31T05:37:14;28.67;;;10.18;;
10517;SDS011;5307;42.548;22.968;2022-10-31T05:39:41;25.42;;;11.23;;
10517;SDS011;5307;42.548;22.968;2022-10-31T05:42:08;44.25;;;11.13;;
10517;SDS011;5307;42.548;22.968;2022-10-31T05:44:36;27.17;;;11.50;;
10517;SDS011;5307;42.548;22.968;2022-10-31T05:47:03;22.83;;;10.15;;
10517;SDS011;5307;42.548;22.968;2022-10-31T05:49:29;28.05;;;10.50;;
10517;SDS011;5307;42.548;22.968;2022-10-31T05:51:56;27.00;;;10.70;;
10517;SDS011;5307;42.548;22.968;2022-10-31T05:54:23;31.63;;;10.25;;
10517;SDS011;5307;42.548;22.968;2022-10-31T05:56:50;32.42;;;11.35;;
10517;SDS011;5307;42.548;22.968;2022-10-31T05:59:17;29.55;;;11.05;;
10517;SDS011;5307;42.548;22.968;2022-10-31T06:01:45;35.17;;;11.73;;
10517;SDS011;5307;42.548;22.968;2022-10-31T06:04:11;49.22;;;13.32;;
10517;SDS011;5307;42.548;22.968;2022-10-31T06:06:38;27.33;;;10.10;;
10517;SDS011;5307;42.548;22.968;2022-10-31T06:09:05;26.90;;;10.45;;
10517;SDS011;5307;42.548;22.968;2022-10-31T06:11:32;55.28;;;12.48;;
10517;SDS011;5307;42.548;22.968;2022-10-31T06:13:59;28.83;;;10.55;;
10517;SDS011;5307;42.548;22.968;2022-10-31T06:16:25;29.30;;;11.85;;
10517;SDS011;5307;42.548;22.968;2022-10-31T06:18:54;32.42;;;11.50;;
10517;SDS011;5307;42.548;22.968;2022-10-31T06:21:20;44.88;;;12.45;;
10517;SDS011;5307;42.548;22.968;2022-10-31T06:23:47;37.45;;;11.73;;
10517;SDS011;5307;42.548;22.968;2022-10-31T06:26:14;22.88;;;10.88;;
10517;SDS011;5307;42.548;22.968;2022-10-31T06:28:41;29.02;;;10.32;;
10517;SDS011;5307;42.548;22.968;2022-10-31T06:31:08;39.13;;;11.65;;
10517;SDS011;5307;42.548;22.968;2022-10-31T06:33:35;36.03;;;12.45;;
10517;SDS011;5307;42.548;22.968;2022-10-31T06:36:03;69.25;;;15.23;;
10517;SDS011;5307;42.548;22.968;2022-10-31T06:38:31;28.10;;;10.63;;
10517;SDS011;5307;42.548;22.968;2022-10-31T06:40:57;40.80;;;11.40;;
10517;SDS011;5307;42.548;22.968;2022-10-31T06:43:27;47.00;;;13.07;;
10517;SDS011;5307;42.548;22.968;2022-10-31T06:45:54;54.83;;;14.10;;
10517;SDS011;5307;42.548;22.968;2022-10-31T06:48:21;33.72;;;10.68;;
10517;SDS011;5307;42.548;22.968;2022-10-31T06:50:48;31.38;;;10.95;;
10517;SDS011;5307;42.548;22.968;2022-10-31T06:53:16;30.10;;;11.68;;
10517;SDS011;5307;42.548;22.968;2022-10-31T06:55:43;33.42;;;12.30;;
10517;SDS011;5307;42.548;22.968;2022-10-31T06:58:10;46.05;;;13.07;;
10517;SDS011;5307;42.548;22.968;2022-10-31T07:00:37;26.33;;;9.88;;
10517;SDS011;5307;42.548;22.968;2022-10-31T07:03:05;26.85;;;10.50;;
10517;SDS011;5307;42.548;22.968;2022-10-31T07:05:32;26.02;;;9.90;;
10517;SDS011;5307;42.548;22.968;2022-10-31T07:08:03;23.63;;;10.20;;
10517;SDS011;5307;42.548;22.968;2022-10-31T07:10:33;24.02;;;10.88;;
10517;SDS011;5307;42.548;22.968;2022-10-31T07:13:02;18.92;;;7.40;;
10517;SDS011;5307;42.548;22.968;2022-10-31T07:15:32;19.77;;;7.93;;
10517;SDS011;5307;42.548;22.968;2022-10-31T07:18:00;22.30;;;8.20;;
10517;SDS011;5307;42.548;22.968;2022-10-31T07:20:28;12.45;;;7.32;;
10517;SDS011;5307;42.548;22.968;2022-10-31T07:22:55;22.77;;;8.27;;
10517;SDS011;5307;42.548;22.968;2022-10-31T07:25:22;26.35;;;8.80;;
10517;SDS011;5307;42.548;22.968;2022-10-31T07:27:50;24.60;;;8.13;;
10517;SDS011;5307;42.548;22.968;2022-10-31T07:30:17;23.48;;;8.65;;
10517;SDS011;5307;42.548;22.968;2022-10-31T07:32:44;24.23;;;9.48;;
10517;SDS011;5307;42.548;22.968;2022-10-31T07:35:14;21.25;;;8.10;;
10517;SDS011;5307;42.548;22.968;2022-10-31T07:37:42;29.77;;;8.00;;
10517;SDS011;5307;42.548;22.968;2022-10-31T07:40:09;18.10;;;7.63;;
10517;SDS011;5307;42.548;22.968;2022-10-31T07:42:37;18.30;;;7.88;;
10517;SDS011;5307;42.548;22.968;2022-10-31T07:45:07;16.13;;;7.38;;
10517;SDS011;5307;42.548;22.968;2022-10-31T07:47:38;25.83;;;8.30;;
10517;SDS011;5307;42.548;22.968;2022-10-31T07:50:05;18.27;;;7.15;;
10517;SDS011;5307;42.548;22.968;2022-10-31T07:52:33;27.05;;;8.05;;
10517;SDS011;5307;42.548;22.968;2022-10-31T07:55:00;25.20;;;8.05;;
10517;SDS011;5307;42.548;22.968;2022-10-31T07:57:27;21.13;;;7.80;;
10517;SDS011;5307;42.548;22.968;2022-10-31T07:59:54;15.48;;;7.60;;
10517;SDS011;5307;42.548;22.968;2022-10-31T08:02:22;14.20;;;7.03;;
10517;SDS011;5307;42.548;22.968;2022-10-31T08:04:49;11.85;;;5.57;;
10517;SDS011;5307;42.548;22.968;2022-10-31T08:07:16;10.10;;;4.95;;
10517;SDS011;5307;42.548;22.968;2022-10-31T08:09:43;12.25;;;4.72;;
10517;SDS011;5307;42.548;22.968;2022-10-31T08:12:10;9.98;;;4.35;;
10517;SDS011;5307;42.548;22.968;2022-10-31T08:14:37;8.73;;;3.95;;
10517;SDS011;5307;42.548;22.968;2022-10-31T08:17:04;10.55;;;4.07;;
10517;SDS011;5307;42.548;22.968;2022-10-31T08:19:32;10.85;;;4.20;;
10517;SDS011;5307;42.548;22.968;2022-10-31T08:21:59;9.73;;;4.15;;
10517;SDS011;5307;42.548;22.968;2022-10-31T08:24:26;7.88;;;4.32;;
10517;SDS011;5307;42.548;22.968;2022-10-31T08:26:52;7.55;;;4.03;;
10517;SDS011;5307;42.548;22.968;2022-10-31T08:29:19;12.80;;;5.15;;
10517;SDS011;5307;42.548;22.968;2022-10-31T08:31:46;8.65;;;4.82;;
10517;SDS011;5307;42.548;22.968;2022-10-31T08:34:13;9.57;;;4.78;;
10517;SDS011;5307;42.548;22.968;2022-10-31T08:36:41;11.32;;;4.78;;
10517;SDS011;5307;42.548;22.968;2022-10-31T08:39:10;7.40;;;4.50;;
10517;SDS011;5307;42.548;22.968;2022-10-31T08:41:36;14.02;;;4.25;;
10517;SDS011;5307;42.548;22.968;2022-10-31T08:44:03;6.30;;;4.10;;
10517;SDS011;5307;42.548;22.968;2022-10-31T08:46:30;6.60;;;4.00;;
10517;SDS011;5307;42.548;22.968;2022-10-31T08:48:58;7.88;;;3.42;;
10517;SDS011;5307;42.548;22.968;2022-10-31T08:51:24;7.40;;;3.90;;
10517;SDS011;5307;42.548;22.968;2022-10-31T08:53:53;6.00;;;3.80;;
10517;SDS011;5307;42.548;22.968;2022-10-31T08:56:19;6.45;;;4.13;;
10517;SDS011;5307;42.548;22.968;2022-10-31T08:58:47;11.25;;;4.10;;
10517;SDS011;5307;42.548;22.968;2022-10-31T09:01:14;11.25;;;4.50;;
10517;SDS011;5307;42.548;22.968;2022-10-31T09:03:41;8.05;;;3.67;;
10517;SDS011;5307;42.548;22.968;2022-10-31T09:06:08;8.95;;;4.18;;
10517;SDS011;5307;42.548;22.968;2022-10-31T09:08:35;10.98;;;3.90;;
10517;SDS011;5307;42.548;22.968;2022-10-31T09:11:04;9.93;;;3.90;;
10517;SDS011;5307;42.548;22.968;2022-10-31T09:13:31;9.75;;;4.05;;
10517;SDS011;5307;42.548;22.968;2022-10-31T09:15:58;10.52;;;3.92;;
10517;SDS011;5307;42.548;22.968;2022-10-31T09:18:25;11.73;;;4.28;;
10517;SDS011;5307;42.548;22.968;2022-10-31T09:20:53;8.07;;;3.40;;
10517;SDS011;5307;42.548;22.968;2022-10-31T09:23:21;7.60;;;3.53;;
10517;SDS011;5307;42.548;22.968;2022-10-31T09:25:49;148.25;;;14.68;;
10517;SDS011;5307;42.548;22.968;2022-10-31T09:28:20;10.00;;;3.03;;
10517;SDS011;5307;42.548;22.968;2022-10-31T09:30:48;14.32;;;3.15;;
10517;SDS011;5307;42.548;22.968;2022-10-31T09:33:16;11.45;;;4.07;;
10517;SDS011;5307;42.548;22.968;2022-10-31T09:35:44;7.18;;;3.88;;
10517;SDS011;5307;42.548;22.968;2022-10-31T09:38:11;7.15;;;2.78;;
10517;SDS011;5307;42.548;22.968;2022-10-31T09:40:41;9.60;;;3.50;;
10517;SDS011;5307;42.548;22.968;2022-10-31T09:43:14;11.70;;;2.53;;
10517;SDS011;5307;42.548;22.968;2022-10-31T09:45:50;10.60;;;3.50;;
10517;SDS011;5307;42.548;22.968;2022-10-31T09:48:35;11.52;;;3.55;;
10517;SDS011;5307;42.548;22.968;2022-10-31T09:51:10;4.95;;;3.85;;
10517;SDS011;5307;42.548;22.968;2022-10-31T09:53:43;7.18;;;3.90;;
10517;SDS011;5307;42.548;22.968;2022-10-31T09:56:14;27.90;;;6.15;;
10517;SDS011;5307;42.548;22.968;2022-10-31T09:58:44;16.98;;;4.60;;
10517;SDS011;5307;42.548;22.968;2022-10-31T10:01:19;17.63;;;9.55;;
10517;SDS011;5307;42.548;22.968;2022-10-31T10:03:57;12.70;;;6.35;;
10517;SDS011;5307;42.548;22.968;2022-10-31T10:06:32;7.70;;;3.55;;
10517;SDS011;5307;42.548;22.968;2022-10-31T10:09:02;29.48;;;16.00;;
10517;SDS011;5307;42.548;22.968;2022-10-31T10:11:33;24.40;;;13.52;;
10517;SDS011;5307;42.548;22.968;2022-10-31T10:17:11;11.00;;;3.63;;
10517;SDS011;5307;42.548;22.968;2022-10-31T10:19:59;11.43;;;5.35;;
10517;SDS011;5307;42.548;22.968;2022-10-31T10:22:40;8.27;;;4.80;;
10517;SDS011;5307;42.548;22.968;2022-10-31T10:25:14;10.75;;;5.05;;
10517;SDS011;5307;42.548;22.968;2022-10-31T10:27:58;5.13;;;4.10;;
10517;SDS011;5307;42.548;22.968;2022-10-31T10:30:33;5.35;;;3.13;;
10517;SDS011;5307;42.548;22.968;2022-10-31T10:33:09;7.88;;;3.58;;
10517;SDS011;5307;42.548;22.968;2022-10-31T10:35:39;9.38;;;3.05;;
10517;SDS011;5307;42.548;22.968;2022-10-31T10:38:11;15.10;;;3.58;;
10517;SDS011;5307;42.548;22.968;2022-10-31T10:40:42;10.45;;;3.60;;
10517;SDS011;5307;42.548;22.968;2022-10-31T10:43:23;10.95;;;3.13;;
10517;SDS011;5307;42.548;22.968;2022-10-31T10:46:00;10.05;;;3.17;;
10517;SDS011;5307;42.548;22.968;2022-10-31T10:49:03;5.95;;;3.20;;
10517;SDS011;5307;42.548;22.968;2022-10-31T10:51:40;10.00;;;3.55;;
10517;SDS011;5307;42.548;22.968;2022-10-31T10:57:22;8.60;;;3.70;;
10517;SDS011;5307;42.548;22.968;2022-10-31T11:00:12;10.25;;;3.25;;
10517;SDS011;5307;42.548;22.968;2022-10-31T11:02:43;5.55;;;3.25;;
10517;SDS011;5307;42.548;22.968;2022-10-31T11:05:13;7.82;;;3.08;;
10517;SDS011;5307;42.548;22.968;2022-10-31T11:07:46;9.27;;;2.83;;
10517;SDS011;5307;42.548;22.968;2022-10-31T11:10:13;4.32;;;3.13;;
10517;SDS011;5307;42.548;22.968;2022-10-31T11:12:42;6.80;;;2.83;;
10517;SDS011;5307;42.548;22.968;2022-10-31T11:15:16;8.90;;;2.75;;
10517;SDS011;5307;42.548;22.968;2022-10-31T11:17:47;6.97;;;2.85;;
10517;SDS011;5307;42.548;22.968;2022-10-31T11:20:25;6.72;;;2.70;;
10517;SDS011;5307;42.548;22.968;2022-10-31T11:23:16;8.00;;;3.40;;
10517;SDS011;5307;42.548;22.968;2022-10-31T11:25:51;10.95;;;2.92;;
10517;SDS011;5307;42.548;22.968;2022-10-31T11:28:20;8.45;;;2.65;;
10517;SDS011;5307;42.548;22.968;2022-10-31T11:30:50;10.40;;;3.08;;
10517;SDS011;5307;42.548;22.968;2022-10-31T11:33:22;8.52;;;3.25;;
10517;SDS011;5307;42.548;22.968;2022-10-31T11:35:53;8.43;;;4.93;;
10517;SDS011;5307;42.548;22.968;2022-10-31T11:40:58;10.10;;;3.28;;
10517;SDS011;5307;42.548;22.968;2022-10-31T11:43:33;10.43;;;2.83;;
10517;SDS011;5307;42.548;22.968;2022-10-31T11:46:07;11.20;;;3.67;;
10517;SDS011;5307;42.548;22.968;2022-10-31T11:48:35;9.23;;;3.35;;
10517;SDS011;5307;42.548;22.968;2022-10-31T11:51:04;8.55;;;2.90;;
10517;SDS011;5307;42.548;22.968;2022-10-31T11:53:33;9.60;;;3.38;;
10517;SDS011;5307;42.548;22.968;2022-10-31T11:56:02;15.60;;;3.35;;
10517;SDS011;5307;42.548;22.968;2022-10-31T11:58:31;12.40;;;3.72;;
10517;SDS011;5307;42.548;22.968;2022-10-31T12:00:58;17.73;;;3.95;;
10517;SDS011;5307;42.548;22.968;2022-10-31T12:03:32;6.35;;;3.60;;
10517;SDS011;5307;42.548;22.968;2022-10-31T12:06:07;8.98;;;4.63;;
10517;SDS011;5307;42.548;22.968;2022-10-31T12:08:39;11.88;;;3.15;;
10517;SDS011;5307;42.548;22.968;2022-10-31T12:11:09;8.20;;;2.85;;
10517;SDS011;5307;42.548;22.968;2022-10-31T12:13:51;8.45;;;2.72;;
10517;SDS011;5307;42.548;22.968;2022-10-31T12:16:29;12.73;;;3.28;;
10517;SDS011;5307;42.548;22.968;2022-10-31T12:19:03;12.00;;;3.25;;
10517;SDS011;5307;42.548;22.968;2022-10-31T12:21:41;11.65;;;3.42;;
10517;SDS011;5307;42.548;22.968;2022-10-31T12:24:22;13.32;;;2.55;;
10517;SDS011;5307;42.548;22.968;2022-10-31T12:27:05;13.75;;;2.58;;
10517;SDS011;5307;42.548;22.968;2022-10-31T12:29:48;11.02;;;2.40;;
10517;SDS011;5307;42.548;22.968;2022-10-31T12:32:54;5.78;;;2.45;;
10517;SDS011;5307;42.548;22.968;2022-10-31T12:35:47;8.27;;;2.42;;
10517;SDS011;5307;42.548;22.968;2022-10-31T12:38:30;12.43;;;2.60;;
10517;SDS011;5307;42.548;22.968;2022-10-31T12:41:28;14.18;;;3.53;;
10517;SDS011;5307;42.548;22.968;2022-10-31T12:44:06;7.15;;;2.97;;
10517;SDS011;5307;42.548;22.968;2022-10-31T12:46:46;10.23;;;2.80;;
10517;SDS011;5307;42.548;22.968;2022-10-31T12:52:29;9.07;;;3.08;;
10517;SDS011;5307;42.548;22.968;2022-10-31T12:55:08;16.08;;;3.10;;
10517;SDS011;5307;42.548;22.968;2022-10-31T12:57:44;8.98;;;2.97;;
10517;SDS011;5307;42.548;22.968;2022-10-31T13:00:13;8.73;;;2.83;;
10517;SDS011;5307;42.548;22.968;2022-10-31T13:02:43;14.55;;;3.85;;
10517;SDS011;5307;42.548;22.968;2022-10-31T13:05:17;8.95;;;3.55;;
10517;SDS011;5307;42.548;22.968;2022-10-31T13:07:49;12.07;;;2.90;;
10517;SDS011;5307;42.548;22.968;2022-10-31T13:10:24;16.15;;;3.50;;
10517;SDS011;5307;42.548;22.968;2022-10-31T13:12:57;11.55;;;2.83;;
10517;SDS011;5307;42.548;22.968;2022-10-31T13:15:30;9.32;;;2.80;;
10517;SDS011;5307;42.548;22.968;2022-10-31T13:18:04;5.75;;;3.22;;
10517;SDS011;5307;42.548;22.968;2022-10-31T13:20:37;6.72;;;2.63;;
10517;SDS011;5307;42.548;22.968;2022-10-31T13:23:10;5.53;;;2.30;;
10517;SDS011;5307;42.548;22.968;2022-10-31T13:25:44;8.00;;;3.08;;
10517;SDS011;5307;42.548;22.968;2022-10-31T13:28:18;11.77;;;3.55;;
10517;SDS011;5307;42.548;22.968;2022-10-31T13:30:55;8.00;;;3.03;;
10517;SDS011;5307;42.548;22.968;2022-10-31T13:33:23;11.80;;;3.42;;
10517;SDS011;5307;42.548;22.968;2022-10-31T13:35:59;7.70;;;2.78;;
10517;SDS011;5307;42.548;22.968;2022-10-31T13:38:38;13.52;;;3.17;;
10517;SDS011;5307;42.548;22.968;2022-10-31T13:41:17;7.13;;;3.00;;
10517;SDS011;5307;42.548;22.968;2022-10-31T13:43:58;6.45;;;2.63;;
10517;SDS011;5307;42.548;22.968;2022-10-31T13:46:36;7.75;;;3.05;;
10517;SDS011;5307;42.548;22.968;2022-10-31T13:49:18;12.77;;;4.22;;
10517;SDS011;5307;42.548;22.968;2022-10-31T13:51:51;4.65;;;2.42;;
10517;SDS011;5307;42.548;22.968;2022-10-31T13:54:20;10.82;;;2.92;;
10517;SDS011;5307;42.548;22.968;2022-10-31T13:56:49;19.67;;;6.57;;
10517;SDS011;5307;42.548;22.968;2022-10-31T13:59:18;12.23;;;3.28;;
10517;SDS011;5307;42.548;22.968;2022-10-31T14:01:48;16.85;;;3.67;;
10517;SDS011;5307;42.548;22.968;2022-10-31T14:04:20;13.77;;;3.58;;
10517;SDS011;5307;42.548;22.968;2022-10-31T14:06:53;13.63;;;2.78;;
10517;SDS011;5307;42.548;22.968;2022-10-31T14:09:31;8.50;;;2.95;;
10517;SDS011;5307;42.548;22.968;2022-10-31T14:12:03;12.52;;;3.55;;
10517;SDS011;5307;42.548;22.968;2022-10-31T14:14:39;10.55;;;3.58;;
10517;SDS011;5307;42.548;22.968;2022-10-31T14:17:16;6.35;;;3.03;;
10517;SDS011;5307;42.548;22.968;2022-10-31T14:22:45;12.48;;;3.45;;
10517;SDS011;5307;42.548;22.968;2022-10-31T14:25:25;10.88;;;3.03;;
10517;SDS011;5307;42.548;22.968;2022-10-31T14:27:55;10.18;;;2.92;;
10517;SDS011;5307;42.548;22.968;2022-10-31T14:30:23;10.95;;;3.30;;
10517;SDS011;5307;42.548;22.968;2022-10-31T14:32:52;9.13;;;3.10;;
10517;SDS011;5307;42.548;22.968;2022-10-31T14:35:21;9.18;;;3.03;;
10517;SDS011;5307;42.548;22.968;2022-10-31T14:41:03;11.98;;;3.63;;
10517;SDS011;5307;42.548;22.968;2022-10-31T14:47:24;22.35;;;4.07;;
10517;SDS011;5307;42.548;22.968;2022-10-31T14:50:19;20.48;;;6.65;;
10517;SDS011;5307;42.548;22.968;2022-10-31T14:52:52;28.08;;;11.10;;
10517;SDS011;5307;42.548;22.968;2022-10-31T14:55:22;25.80;;;9.30;;
10517;SDS011;5307;42.548;22.968;2022-10-31T14:57:51;33.13;;;9.20;;
10517;SDS011;5307;42.548;22.968;2022-10-31T15:00:21;21.00;;;8.55;;
10517;SDS011;5307;42.548;22.968;2022-10-31T15:02:53;35.72;;;8.77;;
10517;SDS011;5307;42.548;22.968;2022-10-31T15:05:29;22.35;;;7.97;;
10517;SDS011;5307;42.548;22.968;2022-10-31T15:07:58;28.50;;;8.57;;
10517;SDS011;5307;42.548;22.968;2022-10-31T15:10:25;33.65;;;8.75;;
10517;SDS011;5307;42.548;22.968;2022-10-31T15:12:54;21.65;;;6.05;;
10517;SDS011;5307;42.548;22.968;2022-10-31T15:15:22;20.45;;;7.18;;
10517;SDS011;5307;42.548;22.968;2022-10-31T15:17:52;22.38;;;7.70;;
10517;SDS011;5307;42.548;22.968;2022-10-31T15:20:22;25.70;;;7.78;;
10517;SDS011;5307;42.548;22.968;2022-10-31T15:22:54;39.70;;;8.25;;
10517;SDS011;5307;42.548;22.968;2022-10-31T15:25:24;29.25;;;10.25;;
10517;SDS011;5307;42.548;22.968;2022-10-31T15:27:52;31.40;;;7.40;;
10517;SDS011;5307;42.548;22.968;2022-10-31T15:30:20;33.45;;;7.18;;